Fort Vermilion, Canada
Current Conditions -  °F | °C
As of 6:00 PM on Friday 19 Dec 2014 (Local Time) from CYOJ Reporting Station
Broken Clouds Broken Clouds  
Wind Chill:   Ceiling: 17000
Heat Index: 19°   Visibility: 15mi
Dew Point: 19°   Wind: 8mph
Humidity: 100%   Direction: 160°SSE
Pressure: 29.57"   Gusts: NA
Location:  58.4°N, 116°W
Report Text: CYOJ 200100Z 16007KT 15SM SCT090 BKN170 M07/M07 A2957 RMK AC3AC3 SLP042
Loading
Personal Weather Stations






























Interactive Weather Map New forecast layout! Learn more

10-Day Weather Forecast

Advertisements
Track Severe Weather on mobile